Time;durP1;ratioP1;P1;durP2;ratioP2;P2;SDS_P1;SDS_P2;PMS_P1;PMS_P2;Temp;Humidity;BMP_temperature;BMP_pressure;BME280_temperature;BME280_humidity;BME280_pressure;Samples;Min_cycle;Max_cycle;Signal;HPM_P1;HPM_P2
2023/10/11 00:02:59;;;;;;;5.32;4.30;;;;;;;14.60;nan;99857.09;4888097;29;20234;-79
2023/10/11 00:05:35;;;;;;;10.95;5.20;;;;;;;14.60;nan;99857.09;4885912;29;20219;-78
2023/10/11 00:08:03;;;;;;;14.57;5.13;;;;;;;14.59;nan;99860.69;4890188;29;20232;-80
2023/10/11 00:10:29;;;;;;;9.90;4.68;;;;;;;14.58;nan;99865.16;4889118;29;20198;-78
2023/10/11 00:12:58;;;;;;;15.67;5.00;;;;;;;14.59;nan;99863.34;4887111;29;20206;-78
2023/10/11 00:15:29;;;;;;;6.63;4.47;;;;;;;14.58;nan;99859.00;4889173;29;20203;-79
2023/10/11 00:17:57;;;;;;;10.65;4.65;;;;;;;14.54;nan;99855.75;4889077;29;20721;-78
2023/10/11 00:20:50;;;;;;;7.05;4.93;;;;;;;14.55;nan;99861.88;4885135;29;20641;-79
2023/10/11 00:23:17;;;;;;;6.10;5.32;;;;;;;14.53;nan;99863.81;4889238;29;20211;-79
2023/10/11 00:25:44;;;;;;;8.07;4.57;;;;;;;14.51;nan;99863.06;4889964;29;20215;-78
2023/10/11 00:28:10;;;;;;;6.93;4.13;;;;;;;14.48;nan;99872.06;4889903;29;20198;-79
2023/10/11 00:30:38;;;;;;;7.05;4.20;;;;;;;14.42;nan;99861.94;4897098;29;21239;-79
2023/10/11 00:33:07;;;;;;;10.70;4.10;;;;;;;14.39;nan;99867.44;4892168;29;20211;-79
2023/10/11 00:35:44;;;;;;;8.98;5.30;;;;;;;14.38;nan;99863.97;4908123;29;20202;-79
2023/10/11 00:38:11;;;;;;;5.53;3.88;;;;;;;14.37;nan;99862.28;4894125;29;20201;-80
2023/10/11 00:40:37;;;;;;;4.45;3.78;;;;;;;14.36;nan;99857.94;4895474;29;20286;-79
2023/10/11 00:43:02;;;;;;;7.00;4.30;;;;;;;14.28;nan;99855.03;4895218;29;20696;-79
2023/10/11 00:45:36;;;;;;;6.80;4.00;;;;;;;14.22;nan;99854.66;4893829;29;20500;-79
2023/10/11 00:48:06;;;;;;;9.18;4.22;;;;;;;14.14;nan;99849.94;4892229;29;20219;-79
2023/10/11 00:50:32;;;;;;;10.15;5.00;;;;;;;14.05;nan;99850.66;4892377;29;20624;-79
2023/10/11 00:53:00;;;;;;;7.13;3.78;;;;;;;14.02;nan;99850.88;4896593;29;20202;-79
2023/10/11 00:55:29;;;;;;;5.18;4.20;;;;;;;14.01;nan;99841.25;4896088;29;20238;-79
2023/10/11 00:57:55;;;;;;;6.57;4.40;;;;;;;14.01;nan;99841.25;4887700;29;20207;-79
2023/10/11 01:00:22;;;;;;;9.65;4.18;;;;;;;14.01;nan;99838.63;4896339;29;20779;-79
2023/10/11 01:02:54;;;;;;;7.57;5.22;;;;;;;14.01;nan;99839.44;4891940;29;20234;-78
2023/10/11 01:05:21;;;;;;;9.00;4.07;;;;;;;14.00;nan;99834.28;4893907;29;20210;-78
2023/10/11 01:07:49;;;;;;;8.05;4.22;;;;;;;13.95;nan;99845.19;4891350;29;20254;-79
2023/10/11 01:10:16;;;;;;;9.23;4.50;;;;;;;13.92;nan;99829.56;4898789;29;20223;-78
2023/10/11 01:12:41;;;;;;;4.80;3.58;;;;;;;13.88;nan;99836.91;4891957;29;20556;-78
2023/10/11 01:15:13;;;;;;;5.90;3.93;;;;;;;13.86;nan;99830.88;4893491;29;21298;-78
2023/10/11 01:17:39;;;;;;;16.27;5.18;;;;;;;13.85;nan;99829.19;4890863;29;20211;-79
2023/10/11 01:20:14;;;;;;;6.30;4.22;;;;;;;13.84;nan;99832.78;4896618;29;20235;-79
2023/10/11 01:22:45;;;;;;;6.38;3.70;;;;;;;13.82;nan;99836.50;4890662;29;20214;-79
2023/10/11 01:25:12;;;;;;;5.15;4.20;;;;;;;13.81;nan;99827.72;4894519;29;20220;-78
2023/10/11 01:27:41;;;;;;;10.18;4.28;;;;;;;13.80;nan;99827.81;4894346;29;20588;-79
2023/10/11 01:30:09;;;;;;;7.32;4.25;;;;;;;13.77;nan;99834.22;4894319;29;20206;-78
2023/10/11 01:32:37;;;;;;;12.38;4.57;;;;;;;13.76;nan;99829.84;4895994;29;20278;-78
2023/10/11 01:35:21;;;;;;;8.07;4.65;;;;;;;13.73;nan;99820.38;4894429;29;20720;-79
2023/10/11 01:37:48;;;;;;;7.40;5.18;;;;;;;13.73;nan;99827.44;4892457;29;20208;-78
2023/10/11 01:40:31;;;;;;;5.07;3.80;;;;;;;13.73;nan;99823.00;4891656;29;20217;-78
2023/10/11 01:42:57;;;;;;;7.25;4.40;;;;;;;13.72;nan;99825.78;4892901;29;20206;-79
2023/10/11 01:45:25;;;;;;;6.03;4.43;;;;;;;13.68;nan;99825.13;4888377;29;20225;-78
2023/10/11 01:47:51;;;;;;;8.77;3.97;;;;;;;13.65;nan;99819.25;4894128;29;20205;-79
2023/10/11 01:50:20;;;;;;;9.17;4.70;;;;;;;13.65;nan;99821.88;4890778;29;20210;-79
2023/10/11 01:52:47;;;;;;;5.13;4.30;;;;;;;13.64;nan;99831.63;4894891;29;20466;-79
2023/10/11 01:55:14;;;;;;;6.10;4.60;;;;;;;13.64;nan;99823.69;4906766;29;20275;-79
2023/10/11 01:57:45;;;;;;;6.45;4.05;;;;;;;13.64;nan;99830.78;4890425;29;20215;-79
2023/10/11 02:00:13;;;;;;;7.00;5.40;;;;;;;13.63;nan;99826.44;4891584;29;20660;-79
2023/10/11 02:02:55;;;;;;;8.02;5.50;;;;;;;13.61;nan;99823.06;4889546;29;20259;-79
2023/10/11 02:05:25;;;;;;;5.03;3.67;;;;;;;13.59;nan;99822.34;4887300;29;20219;-79
2023/10/11 02:07:51;;;;;;;8.85;5.25;;;;;;;13.61;nan;99828.34;4887412;29;20207;-79
2023/10/11 02:10:27;;;;;;;8.85;4.50;;;;;;;13.61;nan;99833.59;4886313;29;20211;-79
2023/10/11 02:12:56;;;;;;;7.13;3.60;;;;;;;13.57;nan;99834.81;4888806;29;21128;-79
2023/10/11 02:15:28;;;;;;;7.72;4.03;;;;;;;13.47;nan;99831.97;4902547;29;20654;-79
2023/10/11 02:17:54;;;;;;;8.30;4.45;;;;;;;13.35;nan;99828.44;4885839;29;20774;-79
2023/10/11 02:20:22;;;;;;;6.57;4.78;;;;;;;13.25;nan;99830.84;4886735;29;20266;-79
2023/10/11 02:22:55;;;;;;;8.23;4.03;;;;;;;13.18;nan;99829.59;4888186;29;20211;-78
2023/10/11 02:25:25;;;;;;;6.85;4.10;;;;;;;13.18;nan;99828.78;4889584;29;20221;-79
2023/10/11 02:27:52;;;;;;;6.97;4.80;;;;;;;13.16;nan;99828.03;4887731;29;20619;-78
2023/10/11 02:30:21;;;;;;;10.13;5.13;;;;;;;13.16;nan;99822.75;4889627;29;20225;-78
2023/10/11 02:32:49;;;;;;;5.32;4.03;;;;;;;13.17;nan;99820.00;4889339;29;20198;-79
2023/10/11 02:35:18;;;;;;;9.40;4.77;;;;;;;13.18;nan;99831.41;4892643;29;20214;-79
2023/10/11 02:37:45;;;;;;;8.75;6.18;;;;;;;13.17;nan;99821.78;4890433;29;20194;-78
2023/10/11 02:40:22;;;;;;;8.73;4.65;;;;;;;13.19;nan;99825.16;4889933;29;20249;-79
2023/10/11 02:42:49;;;;;;;6.22;4.85;;;;;;;13.21;nan;99821.47;4902104;29;20202;-79
2023/10/11 02:45:19;;;;;;;6.95;5.60;;;;;;;13.25;nan;99816.81;4918738;23;20230;-75
2023/10/11 02:48:02;;;;;;;10.68;4.70;;;;;;;13.26;nan;99815.91;4903677;29;20684;-74
2023/10/11 02:50:36;;;;;;;7.97;3.88;;;;;;;13.25;nan;99811.53;4907074;29;20255;-74
2023/10/11 02:53:12;;;;;;;6.13;4.43;;;;;;;13.20;nan;99816.28;4895761;29;20231;-74
2023/10/11 02:55:38;;;;;;;7.10;4.38;;;;;;;13.16;nan;99818.31;4899203;29;20398;-74
2023/10/11 02:58:07;;;;;;;6.78;4.60;;;;;;;13.15;nan;99827.19;4876082;29;20302;-73
2023/10/11 03:00:34;;;;;;;5.45;4.30;;;;;;;13.14;nan;99824.66;4891293;29;20199;-74
2023/10/11 03:03:00;;;;;;;5.72;3.95;;;;;;;13.11;nan;99822.22;4889622;29;20741;-73
2023/10/11 03:05:27;;;;;;;6.78;4.13;;;;;;;13.09;nan;99824.13;4877959;29;20586;-74
2023/10/11 03:10:44;;;;;;;11.50;4.82;;;;;;;13.02;nan;99821.94;4896051;29;20203;-74
2023/10/11 03:13:19;;;;;;;5.82;4.07;;;;;;;12.99;nan;99824.78;4896129;29;20210;-74
2023/10/11 03:15:54;;;;;;;7.38;5.40;;;;;;;12.96;nan;99816.22;4879807;29;20213;-74
2023/10/11 03:18:29;;;;;;;7.40;4.82;;;;;;;12.91;nan;99816.56;4880669;29;20257;-74
2023/10/11 03:21:16;;;;;;;11.32;4.70;;;;;;;12.87;nan;99812.44;4881223;29;20573;-74
2023/10/11 03:23:43;;;;;;;7.22;4.10;;;;;;;12.86;nan;99817.84;4879593;29;20207;-75
2023/10/11 03:26:31;;;;;;;7.32;4.90;;;;;;;12.87;nan;99816.88;4879283;29;20242;-75
2023/10/11 03:29:03;;;;;;;10.57;5.03;;;;;;;12.86;nan;99816.03;4881588;29;20227;-75
2023/10/11 03:31:40;;;;;;;7.85;5.10;;;;;;;12.86;nan;99813.41;4879640;29;20211;-76
2023/10/11 03:34:12;;;;;;;6.20;4.68;;;;;;;12.84;nan;99817.94;4880286;29;20707;-75
2023/10/11 03:36:58;;;;;;;7.22;3.42;;;;;;;12.75;nan;99815.97;4882262;29;20201;-75
2023/10/11 03:39:44;;;;;;;8.02;3.65;;;;;;;12.63;nan;99807.09;4882053;29;20242;-75
2023/10/11 03:44:39;;;;;;;4.50;3.23;;;;;;;12.52;nan;99810.47;4880313;29;20597;-75
2023/10/11 03:47:08;;;;;;;7.78;4.40;;;;;;;12.54;nan;99813.00;4879750;29;20459;-76
2023/10/11 03:49:49;;;;;;;6.80;5.20;;;;;;;12.55;nan;99814.69;4882405;29;20927;-76
2023/10/11 03:52:24;;;;;;;6.15;4.32;;;;;;;12.52;nan;99810.47;4877854;29;20218;-75
2023/10/11 03:54:54;;;;;;;8.52;4.80;;;;;;;12.48;nan;99810.78;4879836;29;20211;-75
2023/10/11 03:57:20;;;;;;;6.30;4.38;;;;;;;12.44;nan;99815.41;4880140;29;20705;-73
2023/10/11 03:59:51;;;;;;;5.80;5.20;;;;;;;12.42;nan;99819.94;4881904;29;20207;-75
2023/10/11 04:02:17;;;;;;;12.23;5.47;;;;;;;12.41;nan;99810.34;4881043;29;20211;-75
2023/10/11 04:04:45;;;;;;;13.32;5.72;;;;;;;12.41;nan;99810.34;4879966;29;20226;-75
2023/10/11 04:07:13;;;;;;;6.45;5.28;;;;;;;12.40;nan;99816.56;4879766;29;20300;-76
2023/10/11 04:09:39;;;;;;;7.90;4.80;;;;;;;12.39;nan;99809.59;4882394;29;20354;-76
2023/10/11 04:12:05;;;;;;;8.65;5.10;;;;;;;12.34;nan;99814.34;4882667;29;20262;-75
2023/10/11 04:14:40;;;;;;;5.40;4.70;;;;;;;12.31;nan;99809.28;4896831;29;20203;-75
2023/10/11 04:17:14;;;;;;;10.23;4.85;;;;;;;12.25;nan;99807.91;4881777;29;20230;-75
2023/10/11 04:19:41;;;;;;;13.20;5.50;;;;;;;12.21;nan;99805.59;4886832;29;20840;-75
2023/10/11 04:22:23;;;;;;;5.97;4.20;;;;;;;12.21;nan;99811.72;4880256;29;20194;-75
2023/10/11 04:24:55;;;;;;;9.88;5.32;;;;;;;12.22;nan;99810.75;4876825;29;20215;-75
2023/10/11 04:29:53;;;;;;;9.18;5.65;;;;;;;12.21;nan;99806.44;4881105;29;20317;-75
2023/10/11 04:35:10;;;;;;;7.93;5.13;;;;;;;12.18;nan;99819.81;4881177;29;20199;-75
2023/10/11 04:37:44;;;;;;;9.80;6.50;;;;;;;12.11;nan;99819.38;4878010;29;20352;-75
2023/10/11 04:40:51;;;;;;;8.63;6.72;;;;;;;12.04;nan;99825.13;4882803;29;20210;-75
2023/10/11 04:43:25;;;;;;;11.95;7.80;;;;;;;12.02;nan;99830.53;4881250;29;20651;-74
2023/10/11 04:45:54;;;;;;;13.07;8.98;;;;;;;12.04;nan;99823.34;4894512;29;20653;-75
2023/10/11 04:48:30;;;;;;;7.15;5.40;;;;;;;12.04;nan;99830.41;4876643;29;20215;-74
2023/10/11 04:53:54;;;;;;;9.85;5.65;;;;;;;12.03;nan;99810.28;4873509;29;20230;-75
2023/10/11 04:59:47;;;;;;;11.65;5.25;;;;;;;11.98;nan;99815.84;4872263;29;20771;-74
2023/10/11 05:04:32;;;;;;;7.63;4.83;;;;;;;11.94;nan;99824.91;4878832;29;20581;-75
2023/10/11 05:07:03;;;;;;;10.98;4.93;;;;;;;11.95;nan;99827.44;4876928;29;20397;-77
2023/10/11 05:09:38;;;;;;;5.90;4.65;;;;;;;11.95;nan;99826.59;4877043;29;20568;-77
2023/10/11 05:14:38;;;;;;;6.75;4.70;;;;;;;11.94;nan;99830.19;4877456;29;20240;-76
2023/10/11 05:19:40;;;;;;;16.50;6.15;;;;;;;11.89;nan;99829.63;4881302;29;20230;-77
2023/10/11 05:22:08;;;;;;;9.55;6.00;;;;;;;11.83;nan;99832.66;4882971;29;20204;-76
2023/10/11 05:32:49;;;;;;;9.63;5.25;;;;;;;11.58;nan;99828.09;4883572;29;20194;-77
2023/10/11 05:51:39;;;;;;;9.43;5.53;;;;;;;11.37;nan;99848.72;4880134;29;20196;-77
2023/10/11 05:54:07;;;;;;;10.15;5.22;;;;;;;11.40;nan;99848.56;4897479;29;20207;-77
2023/10/11 05:56:33;;;;;;;11.10;4.43;;;;;;;11.42;nan;99846.66;4881491;29;20196;-77
2023/10/11 05:59:04;;;;;;;8.68;4.90;;;;;;;11.46;nan;99838.47;4869551;29;20251;-77
2023/10/11 06:01:30;;;;;;;16.20;7.45;;;;;;;11.52;nan;99845.97;4884230;29;20195;-77
2023/10/11 06:03:57;;;;;;;10.18;5.72;;;;;;;11.57;nan;99848.31;4880743;29;20621;-77
2023/10/11 06:06:23;;;;;;;9.40;5.90;;;;;;;11.57;nan;99843.06;4882646;29;20214;-77
2023/10/11 06:08:50;;;;;;;12.07;7.57;;;;;;;11.55;nan;99844.94;4880022;29;20215;-77
2023/10/11 06:11:16;;;;;;;8.52;6.93;;;;;;;11.55;nan;99839.66;4882293;29;20238;-78
2023/10/11 06:13:43;;;;;;;13.60;7.60;;;;;;;11.59;nan;99838.53;4883667;29;20303;-77
2023/10/11 06:16:14;;;;;;;7.78;6.60;;;;;;;11.63;nan;99841.81;4880598;29;20956;-77
2023/10/11 06:18:42;;;;;;;11.15;6.60;;;;;;;11.65;nan;99846.03;4880355;29;20211;-77
2023/10/11 06:21:30;;;;;;;14.18;6.80;;;;;;;11.69;nan;99850.19;4880559;29;20199;-79
2023/10/11 06:23:57;;;;;;;9.15;6.90;;;;;;;11.71;nan;99850.06;4882636;29;20235;-77
2023/10/11 06:26:28;;;;;;;9.88;6.20;;;;;;;11.72;nan;99852.59;4881575;29;20730;-77
2023/10/11 06:29:03;;;;;;;10.90;5.95;;;;;;;11.78;nan;99861.88;4882055;29;20207;-77
2023/10/11 06:31:34;;;;;;;15.55;7.75;;;;;;;11.85;nan;99855.25;4877358;29;20677;-77
2023/10/11 06:34:15;;;;;;;14.45;6.03;;;;;;;11.91;nan;99851.44;4879068;29;20207;-77
2023/10/11 06:36:50;;;;;;;14.38;6.00;;;;;;;12.00;nan;99845.56;4879695;29;20187;-77
2023/10/11 06:42:14;;;;;;;11.93;6.25;;;;;;;12.12;nan;99842.13;4880704;29;20787;-77
2023/10/11 06:45:06;;;;;;;17.80;7.57;;;;;;;12.21;nan;99843.31;4879074;29;20280;-77
2023/10/11 06:47:35;;;;;;;8.90;6.00;;;;;;;12.29;nan;99838.38;4880791;29;20270;-77
2023/10/11 06:50:10;;;;;;;14.07;5.95;;;;;;;12.37;nan;99843.97;4883444;29;20203;-77
2023/10/11 06:52:37;;;;;;;9.88;5.70;;;;;;;12.46;nan;99839.88;4881757;29;20824;-77
2023/10/11 06:55:14;;;;;;;9.63;5.47;;;;;;;12.51;nan;99839.56;4880345;29;20213;-76
2023/10/11 06:57:54;;;;;;;12.57;5.15;;;;;;;12.58;nan;99848.72;4880943;29;20265;-77
2023/10/11 07:00:24;;;;;;;16.55;5.97;;;;;;;12.66;nan;99854.31;4883801;29;20203;-77
2023/10/11 07:02:54;;;;;;;13.32;5.32;;;;;;;12.76;nan;99854.53;4883746;29;20203;-77
2023/10/11 07:05:21;;;;;;;11.82;7.45;;;;;;;12.84;nan;99852.22;4898748;29;20203;-77
2023/10/11 07:07:52;;;;;;;8.48;5.80;;;;;;;12.92;nan;99847.25;4882604;29;20207;-77
2023/10/11 07:10:28;;;;;;;10.00;6.13;;;;;;;13.04;nan;99853.44;4883669;29;20736;-77
2023/10/11 07:13:05;;;;;;;13.35;7.38;;;;;;;13.15;nan;99850.06;4880477;29;20449;-77
2023/10/11 07:15:44;;;;;;;9.48;5.53;;;;;;;13.27;nan;99854.50;4881756;29;20342;-77
2023/10/11 07:18:11;;;;;;;8.00;5.38;;;;;;;13.38;nan;99857.22;4880847;29;20202;-77
2023/10/11 07:20:47;;;;;;;12.10;6.53;;;;;;;13.52;nan;99863.31;4882681;29;20682;-77
2023/10/11 07:23:22;;;;;;;6.93;4.95;;;;;;;13.64;nan;99868.56;4881763;29;20227;-78
2023/10/11 07:25:59;;;;;;;12.35;5.43;;;;;;;13.76;nan;99858.91;4877609;29;20211;-77
2023/10/11 07:28:37;;;;;;;11.85;6.15;;;;;;;13.91;nan;99857.78;4880835;29;20207;-77
2023/10/11 07:31:05;;;;;;;12.95;5.88;;;;;;;14.06;nan;99862.88;4880776;29;20202;-77
2023/10/11 07:33:31;;;;;;;9.00;5.65;;;;;;;14.18;nan;99862.00;4881839;29;20207;-77
2023/10/11 07:36:01;;;;;;;7.10;4.55;;;;;;;14.32;nan;99858.31;4880219;29;20218;-77
2023/10/11 07:38:33;;;;;;;10.38;5.05;;;;;;;14.46;nan;99854.63;4880799;29;20774;-77
2023/10/11 07:41:17;;;;;;;11.00;6.18;;;;;;;14.60;nan;99857.91;4881469;29;20214;-77
2023/10/11 07:43:45;;;;;;;9.73;5.13;;;;;;;14.79;nan;99856.50;4878121;29;20218;-77
2023/10/11 07:46:11;;;;;;;9.10;7.43;;;;;;;14.96;nan;99857.84;4880193;29;20223;-77
2023/10/11 07:48:39;;;;;;;8.52;4.43;;;;;;;15.14;nan;99852.94;4879796;29;20203;-77
2023/10/11 07:51:11;;;;;;;8.93;5.93;;;;;;;15.31;nan;99860.38;4879079;29;20265;-77
2023/10/11 07:53:41;;;;;;;11.98;5.13;;;;;;;15.48;nan;99848.44;4879940;29;20713;-77
2023/10/11 07:56:07;;;;;;;7.30;4.07;;;;;;;15.64;nan;99850.72;4880395;29;20207;-77
2023/10/11 07:58:33;;;;;;;15.90;5.78;;;;;;;15.80;nan;99856.47;4879475;29;20589;-77
2023/10/11 08:01:15;;;;;;;9.83;4.23;;;;;;;15.97;nan;99860.38;4879963;29;20210;-77
2023/10/11 08:03:44;;;;;;;8.15;4.72;;;;;;;16.32;nan;99848.66;4879821;29;20195;-77
2023/10/11 08:06:12;;;;;;;9.63;4.70;;;;;;;17.21;nan;99841.91;4881487;29;20715;-77
2023/10/11 08:08:38;;;;;;;6.97;3.95;;;;;;;18.38;nan;99841.25;4878244;29;20215;-77
2023/10/11 08:11:11;;;;;;;11.95;5.40;;;;;;;19.58;nan;99834.25;4882440;29;20768;-77
2023/10/11 08:13:39;;;;;;;11.60;5.00;;;;;;;20.90;nan;99829.03;4879483;29;20211;-77
2023/10/11 08:16:13;;;;;;;8.20;4.70;;;;;;;22.06;nan;99839.09;4879071;29;20826;-77
2023/10/11 08:18:39;;;;;;;9.90;4.90;;;;;;;23.18;nan;99832.94;4879833;29;20228;-77
2023/10/11 08:21:05;;;;;;;11.33;6.60;;;;;;;24.01;nan;99828.84;4878730;29;20897;-78
2023/10/11 08:23:31;;;;;;;9.40;3.83;;;;;;;24.64;nan;99818.72;4880830;29;20201;-75
2023/10/11 08:25:57;;;;;;;5.87;3.47;;;;;;;25.26;nan;99819.41;4877981;29;20532;-76
2023/10/11 08:28:34;;;;;;;7.07;4.50;;;;;;;25.87;nan;99828.00;4880720;29;20206;-76
2023/10/11 08:30:59;;;;;;;7.73;3.73;;;;;;;26.45;nan;99817.09;4880477;29;20481;-76
2023/10/11 08:33:25;;;;;;;9.30;4.30;;;;;;;26.99;nan;99816.44;4882008;29;20485;-75
2023/10/11 08:35:55;;;;;;;7.20;4.53;;;;;;;27.40;nan;99817.50;4879330;29;20187;-76
2023/10/11 08:38:24;;;;;;;8.40;3.20;;;;;;;27.75;nan;99818.22;4879537;29;20291;-76
2023/10/11 08:40:51;;;;;;;7.03;4.57;;;;;;;28.14;nan;99817.47;4879581;29;20834;-76
2023/10/11 08:43:17;;;;;;;5.33;3.80;;;;;;;28.51;nan;99812.50;4878051;29;20465;-75
2023/10/11 08:45:49;;;;;;;6.20;3.97;;;;;;;28.80;nan;99810.38;4922185;23;20553;-76
2023/10/11 08:48:15;;;;;;;12.50;4.17;;;;;;;29.11;nan;99801.56;4889475;29;20239;-79
2023/10/11 08:50:51;;;;;;;5.63;3.50;;;;;;;29.41;nan;99806.44;4895034;29;20443;-78
2023/10/11 08:53:20;;;;;;;6.67;3.90;;;;;;;29.47;nan;99800.19;4899954;29;20529;-79
2023/10/11 08:55:49;;;;;;;8.00;3.53;;;;;;;29.33;nan;99802.94;4902326;29;20498;-79
2023/10/11 08:58:27;;;;;;;8.17;5.00;;;;;;;29.29;nan;99803.59;4899975;29;20840;-78
2023/10/11 09:00:58;;;;;;;6.07;4.70;;;;;;;29.34;nan;99801.06;4902844;29;20445;-78
2023/10/11 09:03:26;;;;;;;7.10;4.13;;;;;;;29.49;nan;99804.31;4899946;29;20436;-76
2023/10/11 09:06:02;;;;;;;7.70;3.93;;;;;;;29.59;nan;99808.44;4901745;29;20428;-76
2023/10/11 09:08:32;;;;;;;10.53;4.63;;;;;;;29.47;nan;99803.72;4894482;29;20464;-76
2023/10/11 09:11:11;;;;;;;13.47;5.83;;;;;;;29.21;nan;99796.53;4901420;29;20439;-76
2023/10/11 09:13:37;;;;;;;8.47;5.00;;;;;;;29.00;nan;99799.50;4901891;29;20452;-75
2023/10/11 09:16:08;;;;;;;8.73;4.10;;;;;;;28.93;nan;99804.13;4900253;29;20811;-76
2023/10/11 09:18:34;;;;;;;6.90;4.27;;;;;;;28.71;nan;99800.84;4899099;29;21020;-76
2023/10/11 09:21:10;;;;;;;10.83;4.47;;;;;;;28.43;nan;99794.63;4902873;29;20464;-76
2023/10/11 09:23:46;;;;;;;7.60;4.10;;;;;;;28.11;nan;99800.84;4900921;29;20541;-79
2023/10/11 09:26:13;;;;;;;5.80;3.00;;;;;;;27.75;nan;99799.31;4901657;29;20482;-77
2023/10/11 09:28:41;;;;;;;7.17;5.40;;;;;;;27.25;nan;99805.00;4900893;29;20908;-77
2023/10/11 09:31:22;;;;;;;8.93;4.80;;;;;;;26.88;nan;99806.22;4902522;29;20444;-77
2023/10/11 09:33:51;;;;;;;10.07;4.80;;;;;;;26.63;nan;99801.31;4898848;29;20472;-77
2023/10/11 09:36:20;;;;;;;7.63;6.10;;;;;;;26.57;nan;99802.13;4901556;29;20996;-77
2023/10/11 09:38:52;;;;;;;9.57;4.00;;;;;;;26.46;nan;99802.59;4900112;29;20566;-77
2023/10/11 09:41:21;;;;;;;8.63;4.10;;;;;;;26.27;nan;99796.91;4902520;29;20435;-77
2023/10/11 09:43:48;;;;;;;7.40;4.60;;;;;;;26.15;nan;99793.06;4898051;29;20841;-77
2023/10/11 09:46:13;;;;;;;6.37;3.60;;;;;;;26.05;nan;99795.22;4900922;29;20495;-77
2023/10/11 09:48:40;;;;;;;10.80;4.30;;;;;;;25.96;nan;99786.47;4903556;29;20461;-77
2023/10/11 09:51:08;;;;;;;9.73;4.07;;;;;;;25.80;nan;99789.38;4901463;29;20265;-77
2023/10/11 09:53:41;;;;;;;5.67;4.43;;;;;;;25.71;nan;99785.16;4901586;29;20457;-77
2023/10/11 09:56:30;;;;;;;7.30;3.43;;;;;;;25.71;nan;99783.31;4901037;29;20435;-77
2023/10/11 09:59:11;;;;;;;9.67;5.30;;;;;;;25.77;nan;99782.53;4901428;29;20920;-77
2023/10/11 10:02:02;;;;;;;13.03;4.00;;;;;;;25.87;nan;99782.25;4900662;29;20691;-77
2023/10/11 10:04:53;;;;;;;14.33;4.47;;;;;;;25.93;nan;99786.03;4899519;29;20544;-77
2023/10/11 10:07:23;;;;;;;10.90;3.40;;;;;;;25.99;nan;99791.47;4899803;29;21355;-77
2023/10/11 10:09:52;;;;;;;6.30;3.30;;;;;;;26.10;nan;99773.94;4901280;29;20973;-77
2023/10/11 10:12:22;;;;;;;10.37;4.00;;;;;;;26.26;nan;99778.22;4900000;29;20548;-77
2023/10/11 10:15:09;;;;;;;6.53;3.20;;;;;;;26.48;nan;99768.22;4902843;29;20458;-77
2023/10/11 10:17:37;;;;;;;12.50;4.00;;;;;;;26.63;nan;99770.84;4901562;29;20442;-77
2023/10/11 10:20:28;;;;;;;11.00;3.40;;;;;;;26.72;nan;99774.22;4900883;29;20643;-77
2023/10/11 10:23:15;;;;;;;14.27;4.63;;;;;;;26.70;nan;99771.72;4899010;29;20454;-78
2023/10/11 10:25:47;;;;;;;6.97;3.53;;;;;;;26.70;nan;99761.75;4901471;29;20471;-77
2023/10/11 10:28:39;;;;;;;7.53;3.53;;;;;;;26.75;nan;99763.03;4902221;29;20458;-77
2023/10/11 10:31:17;;;;;;;8.13;3.80;;;;;;;26.82;nan;99767.44;4901686;29;20466;-77
2023/10/11 10:33:52;;;;;;;9.93;2.97;;;;;;;26.86;nan;99757.06;4902848;29;20446;-78
2023/10/11 10:36:18;;;;;;;8.45;3.50;;;;;;;26.90;nan;99756.47;4899567;29;20481;-77
2023/10/11 10:41:39;;;;;;;10.10;2.90;;;;;;;27.05;nan;99756.31;4902233;29;20459;-77
2023/10/11 10:44:18;;;;;;;12.90;4.10;;;;;;;27.11;nan;99760.94;4901018;29;20462;-77
2023/10/11 10:46:59;;;;;;;18.40;6.77;;;;;;;27.14;nan;99757.00;4901339;29;21119;-77
2023/10/11 10:49:53;;;;;;;11.00;3.70;;;;;;;27.21;nan;99747.09;4901014;29;20528;-77
2023/10/11 10:52:30;;;;;;;4.43;3.33;;;;;;;27.20;nan;99748.13;4897131;29;20478;-77
2023/10/11 10:55:14;;;;;;;4.93;3.63;;;;;;;27.19;nan;99743.75;4900624;29;20466;-77
2023/10/11 10:57:41;;;;;;;8.07;3.50;;;;;;;27.26;nan;99739.22;4901210;29;20474;-77
2023/10/11 11:00:24;;;;;;;4.20;3.37;;;;;;;27.26;nan;99741.91;4897213;29;20467;-77
2023/10/11 11:02:56;;;;;;;5.47;2.70;;;;;;;27.22;nan;99742.53;4898728;29;20549;-78
2023/10/11 11:05:25;;;;;;;7.30;2.90;;;;;;;27.22;nan;99737.97;4899802;29;21174;-78
2023/10/11 11:07:50;;;;;;;7.83;3.50;;;;;;;27.25;nan;99721.41;4901580;29;20500;-77
2023/10/11 11:10:18;;;;;;;6.60;3.33;;;;;;;27.20;nan;99723.88;4900315;29;20451;-77
2023/10/11 11:12:44;;;;;;;7.20;3.23;;;;;;;27.21;nan;99716.59;4901058;29;20427;-78
2023/10/11 11:15:13;;;;;;;11.53;4.17;;;;;;;27.15;nan;99716.34;4901529;29;20451;-77
2023/10/11 11:17:47;;;;;;;13.57;3.47;;;;;;;27.22;nan;99713.72;4897108;29;20440;-77
2023/10/11 11:22:49;;;;;;;6.93;2.93;;;;;;;27.35;nan;99710.19;4900269;29;20477;-77
2023/10/11 11:28:17;;;;;;;7.10;3.63;;;;;;;27.37;nan;99700.03;4898868;29;20462;-77
2023/10/11 11:30:52;;;;;;;9.10;3.43;;;;;;;27.39;nan;99702.53;4900308;29;20461;-77
2023/10/11 11:33:47;;;;;;;8.37;3.50;;;;;;;27.36;nan;99699.22;4898498;29;20990;-77
2023/10/11 11:36:30;;;;;;;5.57;3.43;;;;;;;27.39;nan;99694.44;4898815;29;20956;-77
2023/10/11 11:39:24;;;;;;;8.97;3.33;;;;;;;27.44;nan;99681.19;4897996;29;20509;-77
2023/10/11 11:41:47;;;;;;;11.23;3.60;;;;;;;27.49;nan;99678.66;4899773;29;20466;-77
2023/10/11 11:44:20;;;;;;;8.17;3.53;;;;;;;27.53;nan;99682.63;4897354;29;20467;-77
2023/10/11 11:46:49;;;;;;;4.40;3.27;;;;;;;27.53;nan;99675.38;4899425;29;20647;-77
2023/10/11 11:49:22;;;;;;;8.10;3.13;;;;;;;27.46;nan;99666.44;4899355;29;20989;-77
2023/10/11 11:51:52;;;;;;;7.53;3.70;;;;;;;27.45;nan;99667.47;4897908;29;20472;-77
2023/10/11 11:54:28;;;;;;;7.83;4.30;;;;;;;27.50;nan;99669.56;4899805;29;21108;-77
2023/10/11 11:56:54;;;;;;;9.80;3.30;;;;;;;27.55;nan;99661.69;4897684;29;21097;-77
2023/10/11 11:59:29;;;;;;;6.93;3.37;;;;;;;27.57;nan;99657.75;4901023;29;20668;-77
2023/10/11 12:01:56;;;;;;;8.57;3.37;;;;;;;27.57;nan;99660.44;4898859;29;20480;-77
2023/10/11 12:04:29;;;;;;;7.00;3.37;;;;;;;27.61;nan;99657.31;4899311;29;21040;-77
2023/10/11 12:06:59;;;;;;;6.47;3.30;;;;;;;27.62;nan;99664.38;4899472;29;20474;-77
2023/10/11 12:09:31;;;;;;;8.30;3.20;;;;;;;27.65;nan;99650.47;4900345;29;20712;-77
2023/10/11 12:12:03;;;;;;;8.37;3.67;;;;;;;27.59;nan;99650.25;4900104;29;20510;-77
2023/10/11 12:14:37;;;;;;;7.53;3.97;;;;;;;27.54;nan;99647.38;4900413;29;20472;-77
2023/10/11 12:17:09;;;;;;;8.30;3.97;;;;;;;27.51;nan;99649.63;4898338;29;20489;-78
2023/10/11 12:19:44;;;;;;;8.03;3.07;;;;;;;27.53;nan;99642.16;4898994;29;20586;-78
2023/10/11 12:22:13;;;;;;;6.87;3.87;;;;;;;27.52;nan;99646.72;4901082;29;20515;-77
2023/10/11 12:24:45;;;;;;;9.90;3.97;;;;;;;27.53;nan;99644.84;4899777;29;20468;-77
2023/10/11 12:27:14;;;;;;;6.80;3.80;;;;;;;27.56;nan;99650.66;4902617;29;20532;-77
2023/10/11 12:29:40;;;;;;;8.83;3.83;;;;;;;27.58;nan;99643.19;4907897;29;20454;-77
2023/10/11 12:32:07;;;;;;;10.03;3.43;;;;;;;27.58;nan;99640.50;4907155;29;20590;-77
2023/10/11 12:34:32;;;;;;;7.93;3.50;;;;;;;27.61;nan;99644.66;4906372;29;20210;-77
2023/10/11 12:36:58;;;;;;;7.13;4.20;;;;;;;27.65;nan;99636.97;4906108;29;20867;-77
2023/10/11 12:39:29;;;;;;;7.83;4.07;;;;;;;27.67;nan;99640.28;4906657;29;20206;-77
2023/10/11 12:41:56;;;;;;;6.60;4.57;;;;;;;27.71;nan;99634.28;4906034;29;20206;-77
2023/10/11 12:44:22;;;;;;;106.83;21.87;;;;;;;27.74;nan;99631.16;4904558;29;20454;-77
2023/10/11 12:46:49;;;;;;;12.40;5.73;;;;;;;27.81;nan;99631.16;4900976;29;20566;-78
2023/10/11 12:49:18;;;;;;;8.87;3.67;;;;;;;27.87;nan;99627.66;4907042;29;20497;-77
2023/10/11 12:51:46;;;;;;;7.50;4.63;;;;;;;27.88;nan;99623.09;4903131;29;20900;-77
2023/10/11 12:54:15;;;;;;;7.00;4.20;;;;;;;27.90;nan;99621.00;4905040;29;20676;-77
2023/10/11 12:56:44;;;;;;;11.80;4.03;;;;;;;27.96;nan;99622.84;4905520;29;20470;-78
2023/10/11 12:59:12;;;;;;;5.40;3.97;;;;;;;28.02;nan;99622.84;4905790;29;21104;-78
2023/10/11 13:01:52;;;;;;;8.43;4.67;;;;;;;28.01;nan;99620.34;4903455;29;21105;-77
2023/10/11 13:04:24;;;;;;;9.73;3.83;;;;;;;28.01;nan;99612.25;4903888;29;20477;-78
2023/10/11 13:06:52;;;;;;;9.47;3.97;;;;;;;28.07;nan;99607.88;4904081;29;21043;-76
2023/10/11 13:09:27;;;;;;;10.70;4.57;;;;;;;28.14;nan;99611.38;4906885;29;20458;-76
2023/10/11 13:11:56;;;;;;;4.40;3.40;;;;;;;28.20;nan;99605.16;4902288;29;21124;-76